createdAt,value
2022-11-02T00:00:40.101Z,22.58
2022-11-02T00:03:28.735Z,18.95
2022-11-02T00:05:55.960Z,26.38
2022-11-02T00:08:23.358Z,23.15
2022-11-02T00:10:50.540Z,22.27
2022-11-02T00:13:20.447Z,27.00
2022-11-02T00:15:47.941Z,23.45
2022-11-02T00:18:15.749Z,21.98
2022-11-02T00:20:43.724Z,32.33
2022-11-02T00:23:13.506Z,30.67
2022-11-02T00:25:50.376Z,26.05
2022-11-02T00:28:17.904Z,30.95
2022-11-02T00:30:45.151Z,32.15
2022-11-02T00:33:12.722Z,30.17
2022-11-02T00:35:40.393Z,35.83
2022-11-02T00:38:08.235Z,36.92
2022-11-02T00:40:35.378Z,29.67
2022-11-02T00:43:02.815Z,33.28
2022-11-02T00:45:30.068Z,37.75
2022-11-02T00:47:57.783Z,39.38
2022-11-02T00:50:25.153Z,30.05
2022-11-02T00:52:52.498Z,38.15
2022-11-02T00:55:19.788Z,32.97
2022-11-02T00:57:47.562Z,33.70
2022-11-02T01:00:15.711Z,35.20
2022-11-02T01:02:43.484Z,30.90
2022-11-02T01:05:11.428Z,35.47
2022-11-02T01:07:39.363Z,33.88
2022-11-02T01:10:09.005Z,36.20
2022-11-02T01:15:10.423Z,30.10
2022-11-02T01:17:38.593Z,34.40
2022-11-02T01:20:06.972Z,34.85
2022-11-02T01:22:34.487Z,40.15
2022-11-02T01:25:01.762Z,38.63
2022-11-02T01:27:29.359Z,33.50
2022-11-02T01:29:57.034Z,37.10
2022-11-02T01:32:24.495Z,44.25
2022-11-02T01:34:51.674Z,39.53
2022-11-02T01:37:19.039Z,39.75
2022-11-02T01:39:46.258Z,37.55
2022-11-02T01:42:22.534Z,35.58
2022-11-02T01:44:49.759Z,47.03
2022-11-02T01:47:28.625Z,44.22
2022-11-02T01:50:10.338Z,42.17
2022-11-02T01:52:39.127Z,53.22
2022-11-02T01:55:10.693Z,41.25
2022-11-02T01:57:40.081Z,41.55
2022-11-02T02:00:11.062Z,38.42
2022-11-02T02:02:51.632Z,39.35
2022-11-02T02:05:22.053Z,40.60
2022-11-02T02:07:52.144Z,40.30
2022-11-02T02:10:19.738Z,45.22
2022-11-02T02:12:48.095Z,47.83
2022-11-02T02:15:22.807Z,40.50
2022-11-02T02:18:02.657Z,39.90
2022-11-02T02:21:00.440Z,37.08
2022-11-02T02:24:05.698Z,40.45
2022-11-02T02:27:02.347Z,36.75
2022-11-02T02:30:01.994Z,33.80
2022-11-02T02:32:54.584Z,34.38
2022-11-02T02:35:58.922Z,25.45
2022-11-02T02:38:35.827Z,36.30
2022-11-02T02:41:09.235Z,29.60
2022-11-02T02:43:47.510Z,37.40
2022-11-02T02:46:46.566Z,36.60
2022-11-02T02:49:20.503Z,33.07
2022-11-02T02:51:48.980Z,35.40
2022-11-02T02:54:43.097Z,34.25
2022-11-02T02:57:15.957Z,32.00
2022-11-02T02:59:46.699Z,31.98
2022-11-02T03:02:23.469Z,36.85
2022-11-02T03:04:50.892Z,35.33
2022-11-02T03:07:26.368Z,38.00
2022-11-02T03:10:21.096Z,30.75
2022-11-02T03:13:08.585Z,39.80
2022-11-02T03:15:42.079Z,40.10
2022-11-02T03:18:44.639Z,41.65
2022-11-02T03:21:54.145Z,35.67
2022-11-02T03:24:34.213Z,42.08
2022-11-02T03:29:52.908Z,42.75
2022-11-02T03:32:39.334Z,51.03
2022-11-02T03:35:17.200Z,56.33
2022-11-02T03:37:56.129Z,64.63
2022-11-02T03:40:28.792Z,68.35
2022-11-02T03:42:57.987Z,75.57
2022-11-02T03:45:31.456Z,74.53
2022-11-02T03:48:04.581Z,74.93
2022-11-02T03:50:34.116Z,61.35
2022-11-02T03:53:11.058Z,68.25
2022-11-02T03:55:53.227Z,57.65
2022-11-02T03:58:20.706Z,61.67
2022-11-02T04:01:02.124Z,56.67
2022-11-02T04:03:33.180Z,65.88
2022-11-02T04:06:01.975Z,56.85
2022-11-02T04:08:36.715Z,59.40
2022-11-02T04:11:26.900Z,63.13
2022-11-02T04:14:16.977Z,55.85
2022-11-02T04:16:45.782Z,64.95
2022-11-02T04:19:30.582Z,62.72
2022-11-02T04:22:19.944Z,55.30
2022-11-02T04:25:09.636Z,58.42
2022-11-02T04:27:38.081Z,59.20
2022-11-02T04:30:05.875Z,59.65
2022-11-02T04:33:01.695Z,64.30
2022-11-02T04:35:34.680Z,63.50
2022-11-02T04:38:22.101Z,61.00
2022-11-02T04:41:09.186Z,61.55
2022-11-02T04:43:36.896Z,58.28
2022-11-02T04:46:04.481Z,58.78
2022-11-02T04:48:34.970Z,59.22
2022-11-02T04:51:02.939Z,68.95
2022-11-02T04:53:31.135Z,62.50
2022-11-02T04:55:58.552Z,57.50
2022-11-02T04:58:27.131Z,64.95
2022-11-02T05:00:54.342Z,62.92
2022-11-02T05:03:21.816Z,68.63
2022-11-02T05:05:54.934Z,73.88
2022-11-02T05:08:23.652Z,64.50
2022-11-02T05:10:58.023Z,74.45
2022-11-02T05:13:27.139Z,72.75
2022-11-02T05:15:58.246Z,73.22
2022-11-02T05:18:28.414Z,82.55
2022-11-02T05:21:01.349Z,73.03
2022-11-02T05:23:30.657Z,75.05
2022-11-02T05:26:02.103Z,72.00
2022-11-02T05:28:32.040Z,75.15
2022-11-02T05:31:01.627Z,66.57
2022-11-02T05:33:31.897Z,66.78
2022-11-02T05:36:04.055Z,68.85
2022-11-02T05:38:32.614Z,70.70
2022-11-02T05:41:00.743Z,62.65
2022-11-02T05:43:32.128Z,64.72
2022-11-02T05:46:02.967Z,63.33
2022-11-02T05:48:33.455Z,62.17
2022-11-02T05:51:02.988Z,60.60
2022-11-02T05:53:32.729Z,64.70
2022-11-02T05:56:01.012Z,65.65
2022-11-02T05:58:29.528Z,71.68
2022-11-02T06:01:00.922Z,67.28
2022-11-02T06:03:28.666Z,70.68
2022-11-02T06:05:57.543Z,73.13
2022-11-02T06:08:25.634Z,78.90
2022-11-02T06:10:53.237Z,82.07
2022-11-02T06:13:20.558Z,86.30
2022-11-02T06:15:47.627Z,92.18
2022-11-02T06:18:14.932Z,92.63
2022-11-02T06:20:42.061Z,84.22
2022-11-02T06:23:09.639Z,92.78
2022-11-02T06:25:36.792Z,81.38
2022-11-02T06:28:04.398Z,81.20
2022-11-02T06:30:32.570Z,84.47
2022-11-02T06:33:03.007Z,77.82
2022-11-02T06:35:34.094Z,79.88
2022-11-02T06:38:01.826Z,79.47
2022-11-02T06:40:29.397Z,73.45
2022-11-02T06:43:17.070Z,80.05
2022-11-02T06:45:45.133Z,80.53
2022-11-02T06:48:12.730Z,79.05
2022-11-02T06:50:40.043Z,76.00
2022-11-02T06:53:07.878Z,89.50
2022-11-02T06:55:35.362Z,80.57
2022-11-02T06:58:02.978Z,88.43
2022-11-02T07:00:30.503Z,97.78
2022-11-02T07:03:03.346Z,89.78
2022-11-02T07:05:31.439Z,82.88
2022-11-02T07:07:59.301Z,85.28
2022-11-02T07:10:27.866Z,74.20
2022-11-02T07:12:57.275Z,78.85
2022-11-02T07:15:26.339Z,74.55
2022-11-02T07:17:54.111Z,76.60
2022-11-02T07:20:21.823Z,82.18
2022-11-02T07:22:57.461Z,69.68
2022-11-02T07:25:25.913Z,64.25
2022-11-02T07:27:54.008Z,66.80
2022-11-02T07:30:21.219Z,87.03
2022-11-02T07:32:48.875Z,90.97
2022-11-02T07:35:17.633Z,83.80
2022-11-02T07:37:45.223Z,68.57
2022-11-02T07:40:14.551Z,85.38
2022-11-02T07:42:46.715Z,72.13
2022-11-02T07:45:17.162Z,61.60
2022-11-02T07:47:54.335Z,64.93
2022-11-02T07:50:49.859Z,68.45
2022-11-02T07:54:15.788Z,62.33
2022-11-02T07:57:15.806Z,80.55
2022-11-02T07:59:59.189Z,69.35
2022-11-02T08:03:04.296Z,64.47
2022-11-02T08:08:43.393Z,73.20
2022-11-02T08:12:08.735Z,65.82
2022-11-02T08:14:37.153Z,65.28
2022-11-02T08:17:04.443Z,60.65
2022-11-02T08:19:31.980Z,61.22
2022-11-02T08:21:59.309Z,61.78
2022-11-02T08:24:26.584Z,61.35
2022-11-02T08:26:55.028Z,49.40
2022-11-02T08:29:22.481Z,58.10
2022-11-02T08:31:50.047Z,54.45
2022-11-02T08:34:17.692Z,51.75
2022-11-02T08:36:46.346Z,49.47
2022-11-02T08:39:23.140Z,46.58
2022-11-02T08:41:51.353Z,46.47
2022-11-02T08:44:19.148Z,40.40
2022-11-02T08:46:47.211Z,37.75
2022-11-02T08:49:15.006Z,43.90
2022-11-02T08:52:08.168Z,43.05
2022-11-02T08:54:35.368Z,41.65
2022-11-02T08:57:02.960Z,45.67
2022-11-02T08:59:30.178Z,38.35
2022-11-02T09:01:57.876Z,38.90
2022-11-02T09:04:25.368Z,38.90
2022-11-02T09:06:52.967Z,35.17
2022-11-02T09:09:20.244Z,33.65
2022-11-02T09:11:50.538Z,35.25
2022-11-02T09:14:17.968Z,30.92
2022-11-02T09:16:45.565Z,28.42
2022-11-02T09:19:12.738Z,31.60
2022-11-02T09:21:40.141Z,32.03
2022-11-02T09:24:07.751Z,26.02
2022-11-02T09:26:35.348Z,31.05
2022-11-02T09:29:02.642Z,22.70
2022-11-02T09:31:30.325Z,25.92
2022-11-02T09:33:57.552Z,23.38
2022-11-02T09:36:25.095Z,26.67
2022-11-02T09:38:52.294Z,27.92
2022-11-02T09:41:32.118Z,24.48
2022-11-02T09:44:11.141Z,27.60
2022-11-02T09:46:41.696Z,26.45
2022-11-02T09:49:14.469Z,29.90
2022-11-02T09:51:56.181Z,24.40
2022-11-02T09:54:29.815Z,20.80
2022-11-02T09:57:09.302Z,22.75
2022-11-02T09:59:36.646Z,27.95
2022-11-02T10:02:44.646Z,24.63
2022-11-02T10:05:43.174Z,29.48
2022-11-02T10:08:19.106Z,28.25
2022-11-02T10:11:11.065Z,31.13
2022-11-02T10:13:41.429Z,34.35
2022-11-02T10:18:54.800Z,32.33
2022-11-02T10:21:37.116Z,33.38
2022-11-02T10:24:35.452Z,34.45
2022-11-02T10:27:13.944Z,31.25
2022-11-02T10:29:51.806Z,37.13
2022-11-02T10:32:19.242Z,35.83
2022-11-02T10:34:58.653Z,36.47
2022-11-02T10:38:11.951Z,27.23
2022-11-02T10:41:03.257Z,29.30
2022-11-02T10:43:52.227Z,32.15
2022-11-02T10:46:32.320Z,29.77
2022-11-02T10:49:31.673Z,29.77
2022-11-02T10:51:59.308Z,28.23
2022-11-02T10:54:33.225Z,27.60
2022-11-02T10:57:11.838Z,35.28
2022-11-02T10:59:39.355Z,30.77
2022-11-02T11:02:14.840Z,34.58
2022-11-02T11:04:42.930Z,30.30
2022-11-02T11:07:21.032Z,28.67
2022-11-02T11:09:57.567Z,33.10
2022-11-02T11:12:38.940Z,39.58
2022-11-02T11:20:43.490Z,33.30
2022-11-02T11:23:21.334Z,31.88
2022-11-02T11:25:57.388Z,29.30
2022-11-02T11:28:41.097Z,27.75
2022-11-02T11:31:14.727Z,28.80
2022-11-02T11:33:57.422Z,24.77
2022-11-02T11:36:31.249Z,28.92
2022-11-02T11:39:02.607Z,34.05
2022-11-02T11:41:32.854Z,33.45
2022-11-02T11:44:02.498Z,33.90
2022-11-02T11:46:47.336Z,28.95
2022-11-02T11:52:31.649Z,24.23
2022-11-02T11:55:02.291Z,30.33
2022-11-02T11:57:32.355Z,24.15
2022-11-02T12:00:04.918Z,25.80
2022-11-02T12:02:39.535Z,29.98
2022-11-02T12:05:20.909Z,27.40
2022-11-02T12:08:35.387Z,27.02
2022-11-02T12:11:05.862Z,24.05
2022-11-02T12:14:06.683Z,21.50
2022-11-02T12:16:46.280Z,23.17
2022-11-02T12:19:22.242Z,24.23
2022-11-02T12:22:05.694Z,26.77
2022-11-02T12:24:57.341Z,24.58
2022-11-02T12:27:41.640Z,24.38
2022-11-02T12:30:47.202Z,23.52
2022-11-02T12:33:22.253Z,24.67
2022-11-02T12:36:07.734Z,19.33
2022-11-02T12:38:37.982Z,27.30
2022-11-02T12:46:20.875Z,25.10
2022-11-02T12:48:57.316Z,25.48
2022-11-02T12:51:30.097Z,23.90
2022-11-02T12:54:09.612Z,30.88
2022-11-02T12:56:49.670Z,28.90
2022-11-02T12:59:22.923Z,24.58
2022-11-02T13:01:55.021Z,32.88
2022-11-02T13:04:30.180Z,20.95
2022-11-02T13:07:11.412Z,23.77
2022-11-02T13:12:14.778Z,26.92
2022-11-02T13:15:01.544Z,22.10
2022-11-02T13:18:00.860Z,47.92
2022-11-02T13:20:36.006Z,19.88
2022-11-02T13:23:06.541Z,16.48
2022-11-02T13:25:50.034Z,28.77
2022-11-02T13:28:54.135Z,12.38
2022-11-02T13:31:29.896Z,16.58
2022-11-02T13:34:00.524Z,16.50
2022-11-02T13:36:27.796Z,24.20
2022-11-02T13:39:19.709Z,18.35
2022-11-02T13:42:07.916Z,33.55
2022-11-02T13:44:50.347Z,17.45
2022-11-02T13:48:02.145Z,50.15
2022-11-02T13:50:53.156Z,20.17
2022-11-02T13:53:52.603Z,12.90
2022-11-02T13:57:32.965Z,19.38
2022-11-02T14:00:46.340Z,27.20
2022-11-02T14:07:40.504Z,31.52
2022-11-02T14:10:19.020Z,51.30
2022-11-02T14:12:47.753Z,36.67
2022-11-02T14:15:15.456Z,58.35
2022-11-02T14:18:01.812Z,32.80
2022-11-02T14:20:41.605Z,29.25
2022-11-02T14:23:11.679Z,18.60
2022-11-02T14:25:52.408Z,24.52
2022-11-02T14:28:30.143Z,26.90
2022-11-02T14:31:03.317Z,20.60
2022-11-02T14:33:52.678Z,19.48
2022-11-02T14:36:20.340Z,17.83
2022-11-02T14:39:10.904Z,16.67
2022-11-02T14:41:41.318Z,16.05
2022-11-02T14:48:27.322Z,25.70
2022-11-02T14:51:35.851Z,25.48
2022-11-02T14:57:33.665Z,20.13
2022-11-02T15:15:20.816Z,16.98
2022-11-02T15:24:35.686Z,28.90
2022-11-02T15:27:46.150Z,32.65
2022-11-02T15:30:43.597Z,15.13
2022-11-02T15:38:17.578Z,20.13
2022-11-02T15:41:31.683Z,16.05
2022-11-02T15:44:41.650Z,14.98
2022-11-02T15:50:38.945Z,16.70
2022-11-02T15:54:17.713Z,16.48
2022-11-02T15:57:20.916Z,20.05
2022-11-02T15:59:51.563Z,28.80
2022-11-02T16:02:32.075Z,22.85
2022-11-02T16:05:06.170Z,13.50
2022-11-02T16:07:56.914Z,28.83
2022-11-02T16:10:28.199Z,17.83
2022-11-02T16:13:07.923Z,17.58
2022-11-02T16:18:03.140Z,20.13
2022-11-02T16:20:37.234Z,23.80
2022-11-02T16:23:06.908Z,22.48
2022-11-02T16:25:47.664Z,23.30
2022-11-02T16:28:31.412Z,15.35
2022-11-02T16:31:18.133Z,22.67
2022-11-02T16:33:58.072Z,21.67
2022-11-02T16:36:31.348Z,22.02
2022-11-02T16:39:01.890Z,48.78
2022-11-02T16:41:32.936Z,19.30
2022-11-02T16:44:10.110Z,15.13
2022-11-02T16:46:49.816Z,17.00
2022-11-02T16:49:24.757Z,18.75
2022-11-02T16:51:54.770Z,16.92
2022-11-02T16:54:34.202Z,18.45
2022-11-02T16:59:57.921Z,19.63
2022-11-02T17:02:46.479Z,16.00
2022-11-02T17:05:26.070Z,20.70
2022-11-02T17:08:04.809Z,14.77
2022-11-02T17:10:34.220Z,19.58
2022-11-02T17:13:07.129Z,27.17
2022-11-02T17:15:34.988Z,34.70
2022-11-02T17:18:08.821Z,23.45
2022-11-02T17:20:40.520Z,53.20
2022-11-02T17:23:32.241Z,66.05
2022-11-02T17:26:27.360Z,54.97
2022-11-02T17:29:16.595Z,88.10
2022-11-02T17:31:43.852Z,169.90
2022-11-02T17:34:19.126Z,131.88
2022-11-02T17:36:49.012Z,120.93
2022-11-02T17:39:19.280Z,56.15
2022-11-02T17:42:11.830Z,71.05
2022-11-02T17:44:39.690Z,215.60
2022-11-02T17:47:12.862Z,119.25
2022-11-02T17:49:40.735Z,37.83
2022-11-02T17:52:13.069Z,68.65
2022-11-02T17:54:40.728Z,81.63
2022-11-02T17:57:12.956Z,83.20
2022-11-02T17:59:40.716Z,65.28
2022-11-02T18:02:12.866Z,215.68
2022-11-02T18:04:40.777Z,69.13
2022-11-02T18:07:08.193Z,114.93
2022-11-02T18:09:35.892Z,332.15
2022-11-02T18:12:03.379Z,83.60
2022-11-02T18:14:31.172Z,60.05
2022-11-02T18:16:58.627Z,21.85
2022-11-02T18:19:26.206Z,19.85
2022-11-02T18:21:53.797Z,15.35
2022-11-02T18:24:21.384Z,21.95
2022-11-02T18:26:48.634Z,12.07
2022-11-02T18:29:16.744Z,19.33
2022-11-02T18:31:44.366Z,14.82
2022-11-02T18:34:12.440Z,15.65
2022-11-02T18:36:40.749Z,15.57
2022-11-02T18:39:09.588Z,14.07
2022-11-02T18:41:37.785Z,13.30
2022-11-02T18:44:13.530Z,19.85
2022-11-02T18:46:43.072Z,19.42
2022-11-02T18:49:11.513Z,16.55
2022-11-02T18:51:43.219Z,15.45
2022-11-02T18:54:13.258Z,16.65
2022-11-02T18:56:41.602Z,19.48
2022-11-02T18:59:10.203Z,20.95
2022-11-02T19:01:38.106Z,19.70
2022-11-02T19:04:06.139Z,17.98
2022-11-02T19:06:52.619Z,25.10
2022-11-02T19:09:23.606Z,18.38
2022-11-02T19:12:00.453Z,23.02
2022-11-02T19:14:34.183Z,25.98
2022-11-02T19:17:02.417Z,14.93
2022-11-02T19:19:30.623Z,14.90
2022-11-02T19:21:58.546Z,19.52
2022-11-02T19:24:26.396Z,26.83
2022-11-02T19:26:54.106Z,29.63
2022-11-02T19:29:22.140Z,44.83
2022-11-02T19:31:49.608Z,49.15
2022-11-02T19:34:17.281Z,43.20
2022-11-02T19:36:44.656Z,75.32
2022-11-02T19:39:12.447Z,87.85
2022-11-02T19:41:40.019Z,82.07
2022-11-02T19:44:08.203Z,26.08
2022-11-02T19:46:36.044Z,56.58
2022-11-02T19:49:04.098Z,69.75
2022-11-02T19:51:32.155Z,65.05
2022-11-02T19:54:02.564Z,36.75
2022-11-02T19:56:33.063Z,25.13
2022-11-02T19:59:02.007Z,19.08
2022-11-02T20:01:32.219Z,45.57
2022-11-02T20:04:00.538Z,23.35
2022-11-02T20:06:39.662Z,40.35
2022-11-02T20:11:40.078Z,18.25
2022-11-02T20:14:08.508Z,22.33
2022-11-02T20:16:36.223Z,17.73
2022-11-02T20:19:05.256Z,15.57
2022-11-02T20:21:38.250Z,16.73
2022-11-02T20:24:11.943Z,18.20
2022-11-02T20:26:44.062Z,19.60
2022-11-02T20:29:15.486Z,23.67
2022-11-02T20:31:46.047Z,17.38
2022-11-02T20:34:14.546Z,31.85
2022-11-02T20:36:42.868Z,19.65
2022-11-02T20:39:12.315Z,21.90
2022-11-02T20:41:39.962Z,20.90
2022-11-02T20:44:08.728Z,12.88
2022-11-02T20:46:40.993Z,14.25
2022-11-02T20:49:22.360Z,13.23
2022-11-02T20:51:57.635Z,13.30
2022-11-02T20:54:29.898Z,29.60
2022-11-02T20:56:57.915Z,32.50
2022-11-02T20:59:26.675Z,18.52
2022-11-02T21:01:54.601Z,21.30
2022-11-02T21:04:23.759Z,18.52
2022-11-02T21:06:52.432Z,12.10
2022-11-02T21:09:21.079Z,11.52
2022-11-02T21:12:07.031Z,15.27
2022-11-02T21:14:34.970Z,9.20
2022-11-02T21:17:03.071Z,11.63
2022-11-02T21:19:30.986Z,14.65
2022-11-02T21:22:00.194Z,15.45
2022-11-02T21:24:29.219Z,12.25
2022-11-02T21:26:57.076Z,12.27
2022-11-02T21:29:24.957Z,12.30
2022-11-02T21:31:52.377Z,11.48
2022-11-02T21:34:20.102Z,9.75
2022-11-02T21:36:48.807Z,14.50
2022-11-02T21:39:16.782Z,10.53
2022-11-02T21:41:44.267Z,11.52
2022-11-02T21:44:12.146Z,12.68
2022-11-02T21:46:39.603Z,12.48
2022-11-02T21:49:07.302Z,9.10
2022-11-02T21:51:35.098Z,12.45
2022-11-02T21:54:02.882Z,10.20
2022-11-02T21:56:32.041Z,7.57
2022-11-02T21:58:59.867Z,12.40
2022-11-02T22:01:46.893Z,9.63
2022-11-02T22:04:21.618Z,8.68
2022-11-02T22:06:50.210Z,9.77
2022-11-02T22:09:18.438Z,12.95
2022-11-02T22:11:45.773Z,9.60
2022-11-02T22:14:14.127Z,12.48
2022-11-02T22:16:43.442Z,8.65
2022-11-02T22:19:13.200Z,8.07
2022-11-02T22:21:43.607Z,15.85
2022-11-02T22:24:11.951Z,11.45
2022-11-02T22:26:39.738Z,16.05
2022-11-02T22:29:07.616Z,12.65
2022-11-02T22:31:37.545Z,8.85
2022-11-02T22:34:06.582Z,11.43
2022-11-02T22:36:35.223Z,13.63
2022-11-02T22:39:05.043Z,12.10
2022-11-02T22:41:36.662Z,9.93
2022-11-02T22:44:08.419Z,8.65
2022-11-02T22:46:41.207Z,10.40
2022-11-02T22:49:10.838Z,10.43
2022-11-02T22:51:40.437Z,12.00
2022-11-02T22:54:10.337Z,8.50
2022-11-02T22:56:38.212Z,7.82
2022-11-02T22:59:07.328Z,10.75
2022-11-02T23:01:36.109Z,6.80
2022-11-02T23:04:04.728Z,6.20
2022-11-02T23:06:32.502Z,9.77
2022-11-02T23:09:00.179Z,12.13
2022-11-02T23:11:30.748Z,8.75
2022-11-02T23:14:08.806Z,8.85
2022-11-02T23:16:44.348Z,7.47
2022-11-02T23:19:30.158Z,7.45
2022-11-02T23:22:21.036Z,8.73
2022-11-02T23:25:10.689Z,8.35
2022-11-02T23:28:13.148Z,10.52
2022-11-02T23:31:00.321Z,6.13
2022-11-02T23:33:32.795Z,6.95
2022-11-02T23:36:15.350Z,10.30
2022-11-02T23:39:03.243Z,8.27
2022-11-02T23:41:32.350Z,5.90
2022-11-02T23:44:12.447Z,6.78
2022-11-02T23:46:45.920Z,11.07
2022-11-02T23:49:13.827Z,8.45
2022-11-02T23:52:16.703Z,10.43
2022-11-02T23:55:02.480Z,7.65
2022-11-02T23:57:30.391Z,6.28
2022-11-02T23:59:57.551Z,8.18
